OBBI/BAH METAR and TAF weather

Enter ICAO airport designator
Station Type Date Time Source
OBBI METAR 2020/11/27 01:30 UTC NOAA

OBBI 270130Z 16004KT 130V200 CAVOK 24/19 Q1017 NOSIG


Station Type Date Time Source
OBBI Decoded METAR 2020/11/27 01:30 UTC NOAA

Bahrain International Airport , Bahrain (OBBI) 26-16N 050-39E 2M
Nov 26, 2020 - 08:30 PM EST / 2020.11.27 0130 UTC
Wind: from the SSE (160 degrees) at 5 MPH (4 KT) (direction variable):0
Visibility: greater than 7 mile(s):0
Temperature: 75 F (24 C)
Dew Point: 66 F (19 C)
Relative Humidity: 73%
Pressure (altimeter): 30.03 in. Hg (1017 hPa)
ob: OBBI 270130Z 16004KT 130V200 CAVOK 24/19 Q1017 NOSIG
cycle: 1

Station Type Date Time Source
OBBI TAF 2020/11/26 18:58 UTC NOAA

TAF OBBI 261700Z 2618/2800 14010KT 9999 FEW015

Example: see airport list